sensor_id;sensor_type;location;lat;lon;timestamp;P1;durP1;ratioP1;P2;durP2;ratioP2
44046;SDS011;29713;-33.888;151.150;2022-07-06T00:02:05;12.17;;;2.20;;
44046;SDS011;29713;-33.888;151.150;2022-07-06T00:04:33;9.33;;;2.10;;
44046;SDS011;29713;-33.888;151.150;2022-07-06T00:07:00;9.07;;;2.07;;
44046;SDS011;29713;-33.888;151.150;2022-07-06T00:09:27;12.73;;;2.37;;
44046;SDS011;29713;-33.888;151.150;2022-07-06T00:11:55;7.83;;;1.67;;
44046;SDS011;29713;-33.888;151.150;2022-07-06T00:14:22;10.13;;;2.10;;
44046;SDS011;29713;-33.888;151.150;2022-07-06T00:16:49;12.17;;;2.13;;
44046;SDS011;29713;-33.888;151.150;2022-07-06T00:19:17;15.70;;;2.60;;
44046;SDS011;29713;-33.888;151.150;2022-07-06T00:21:44;9.13;;;1.93;;
44046;SDS011;29713;-33.888;151.150;2022-07-06T00:24:11;14.30;;;2.42;;
44046;SDS011;29713;-33.888;151.150;2022-07-06T00:26:39;8.00;;;2.10;;
44046;SDS011;29713;-33.888;151.150;2022-07-06T00:29:06;9.27;;;2.13;;
44046;SDS011;29713;-33.888;151.150;2022-07-06T00:31:34;11.25;;;2.30;;
44046;SDS011;29713;-33.888;151.150;2022-07-06T00:34:01;12.98;;;2.10;;
44046;SDS011;29713;-33.888;151.150;2022-07-06T00:36:28;11.67;;;2.00;;
44046;SDS011;29713;-33.888;151.150;2022-07-06T00:38:55;14.47;;;2.50;;
44046;SDS011;29713;-33.888;151.150;2022-07-06T00:41:23;18.30;;;2.73;;
44046;SDS011;29713;-33.888;151.150;2022-07-06T00:43:51;13.53;;;2.33;;
44046;SDS011;29713;-33.888;151.150;2022-07-06T00:46:32;11.88;;;2.60;;
44046;SDS011;29713;-33.888;151.150;2022-07-06T00:48:59;11.50;;;2.33;;
44046;SDS011;29713;-33.888;151.150;2022-07-06T00:51:29;10.68;;;2.58;;
44046;SDS011;29713;-33.888;151.150;2022-07-06T00:53:59;11.27;;;2.80;;
44046;SDS011;29713;-33.888;151.150;2022-07-06T00:56:29;7.93;;;2.03;;
44046;SDS011;29713;-33.888;151.150;2022-07-06T00:58:58;11.95;;;2.20;;
44046;SDS011;29713;-33.888;151.150;2022-07-06T01:01:28;10.52;;;2.10;;
44046;SDS011;29713;-33.888;151.150;2022-07-06T01:03:56;9.98;;;2.20;;
44046;SDS011;29713;-33.888;151.150;2022-07-06T01:06:23;10.95;;;2.08;;
44046;SDS011;29713;-33.888;151.150;2022-07-06T01:08:50;8.93;;;1.73;;
44046;SDS011;29713;-33.888;151.150;2022-07-06T01:11:18;5.60;;;1.60;;
44046;SDS011;29713;-33.888;151.150;2022-07-06T01:13:47;8.37;;;1.60;;
44046;SDS011;29713;-33.888;151.150;2022-07-06T01:16:16;13.80;;;2.27;;
44046;SDS011;29713;-33.888;151.150;2022-07-06T01:18:44;13.33;;;2.37;;
44046;SDS011;29713;-33.888;151.150;2022-07-06T01:21:12;8.35;;;1.90;;
44046;SDS011;29713;-33.888;151.150;2022-07-06T01:23:41;12.40;;;2.20;;
44046;SDS011;29713;-33.888;151.150;2022-07-06T01:26:14;7.50;;;1.63;;
44046;SDS011;29713;-33.888;151.150;2022-07-06T01:28:45;12.10;;;2.87;;
44046;SDS011;29713;-33.888;151.150;2022-07-06T01:31:23;10.05;;;2.13;;
44046;SDS011;29713;-33.888;151.150;2022-07-06T01:33:53;17.50;;;2.63;;
44046;SDS011;29713;-33.888;151.150;2022-07-06T01:36:22;13.73;;;2.97;;
44046;SDS011;29713;-33.888;151.150;2022-07-06T01:38:53;11.80;;;2.20;;
44046;SDS011;29713;-33.888;151.150;2022-07-06T01:41:23;16.53;;;2.83;;
44046;SDS011;29713;-33.888;151.150;2022-07-06T01:43:51;16.10;;;2.73;;
44046;SDS011;29713;-33.888;151.150;2022-07-06T01:46:18;10.37;;;2.67;;
44046;SDS011;29713;-33.888;151.150;2022-07-06T01:48:46;16.10;;;3.17;;
44046;SDS011;29713;-33.888;151.150;2022-07-06T01:51:14;11.40;;;2.63;;
44046;SDS011;29713;-33.888;151.150;2022-07-06T01:53:41;11.70;;;2.70;;
44046;SDS011;29713;-33.888;151.150;2022-07-06T01:56:09;18.37;;;2.87;;
44046;SDS011;29713;-33.888;151.150;2022-07-06T01:58:38;10.65;;;2.78;;
44046;SDS011;29713;-33.888;151.150;2022-07-06T02:01:09;19.87;;;2.93;;
44046;SDS011;29713;-33.888;151.150;2022-07-06T02:03:38;10.55;;;2.35;;
44046;SDS011;29713;-33.888;151.150;2022-07-06T02:06:06;12.87;;;2.87;;
44046;SDS011;29713;-33.888;151.150;2022-07-06T02:08:34;17.50;;;3.00;;
44046;SDS011;29713;-33.888;151.150;2022-07-06T02:11:02;16.10;;;2.77;;
44046;SDS011;29713;-33.888;151.150;2022-07-06T02:13:31;16.13;;;2.70;;
44046;SDS011;29713;-33.888;151.150;2022-07-06T02:15:59;11.48;;;2.53;;
44046;SDS011;29713;-33.888;151.150;2022-07-06T02:18:26;13.50;;;2.33;;
44046;SDS011;29713;-33.888;151.150;2022-07-06T02:20:54;10.50;;;2.20;;
44046;SDS011;29713;-33.888;151.150;2022-07-06T02:23:21;16.27;;;2.43;;
44046;SDS011;29713;-33.888;151.150;2022-07-06T02:25:49;12.23;;;2.33;;
44046;SDS011;29713;-33.888;151.150;2022-07-06T02:28:16;13.33;;;2.00;;
44046;SDS011;29713;-33.888;151.150;2022-07-06T02:30:46;9.17;;;2.00;;
44046;SDS011;29713;-33.888;151.150;2022-07-06T02:33:14;11.03;;;2.80;;
44046;SDS011;29713;-33.888;151.150;2022-07-06T02:35:41;11.40;;;2.23;;
44046;SDS011;29713;-33.888;151.150;2022-07-06T02:38:09;14.97;;;2.73;;
44046;SDS011;29713;-33.888;151.150;2022-07-06T02:40:37;9.57;;;2.20;;
44046;SDS011;29713;-33.888;151.150;2022-07-06T02:43:05;11.07;;;2.40;;
44046;SDS011;29713;-33.888;151.150;2022-07-06T02:45:32;11.40;;;2.07;;
44046;SDS011;29713;-33.888;151.150;2022-07-06T02:48:00;8.10;;;1.67;;
44046;SDS011;29713;-33.888;151.150;2022-07-06T02:50:27;16.43;;;2.00;;
44046;SDS011;29713;-33.888;151.150;2022-07-06T02:52:54;9.83;;;2.17;;
44046;SDS011;29713;-33.888;151.150;2022-07-06T02:55:24;6.87;;;1.77;;
44046;SDS011;29713;-33.888;151.150;2022-07-06T02:57:51;12.47;;;2.37;;
44046;SDS011;29713;-33.888;151.150;2022-07-06T03:00:19;11.13;;;2.43;;
44046;SDS011;29713;-33.888;151.150;2022-07-06T03:02:46;16.77;;;2.13;;
44046;SDS011;29713;-33.888;151.150;2022-07-06T03:05:13;14.83;;;2.57;;
44046;SDS011;29713;-33.888;151.150;2022-07-06T03:07:40;11.32;;;1.95;;
44046;SDS011;29713;-33.888;151.150;2022-07-06T03:10:08;14.65;;;2.28;;
44046;SDS011;29713;-33.888;151.150;2022-07-06T03:12:35;9.52;;;2.05;;
44046;SDS011;29713;-33.888;151.150;2022-07-06T03:15:03;13.60;;;2.30;;
44046;SDS011;29713;-33.888;151.150;2022-07-06T03:17:30;9.48;;;2.03;;
44046;SDS011;29713;-33.888;151.150;2022-07-06T03:19:58;10.15;;;2.38;;
44046;SDS011;29713;-33.888;151.150;2022-07-06T03:22:25;12.23;;;2.25;;
44046;SDS011;29713;-33.888;151.150;2022-07-06T03:24:52;10.50;;;2.00;;
44046;SDS011;29713;-33.888;151.150;2022-07-06T03:27:19;12.00;;;2.60;;
44046;SDS011;29713;-33.888;151.150;2022-07-06T03:29:47;11.98;;;1.77;;
44046;SDS011;29713;-33.888;151.150;2022-07-06T03:32:14;15.07;;;2.03;;
44046;SDS011;29713;-33.888;151.150;2022-07-06T03:34:41;11.30;;;2.42;;
44046;SDS011;29713;-33.888;151.150;2022-07-06T03:37:09;9.00;;;2.13;;
44046;SDS011;29713;-33.888;151.150;2022-07-06T03:39:36;12.85;;;2.30;;
44046;SDS011;29713;-33.888;151.150;2022-07-06T03:42:03;14.40;;;2.70;;
44046;SDS011;29713;-33.888;151.150;2022-07-06T03:44:31;13.77;;;2.55;;
44046;SDS011;29713;-33.888;151.150;2022-07-06T03:46:58;9.57;;;2.07;;
44046;SDS011;29713;-33.888;151.150;2022-07-06T03:49:25;7.03;;;2.15;;
44046;SDS011;29713;-33.888;151.150;2022-07-06T03:51:53;10.95;;;2.40;;
44046;SDS011;29713;-33.888;151.150;2022-07-06T03:54:20;8.73;;;2.15;;
44046;SDS011;29713;-33.888;151.150;2022-07-06T03:56:48;12.00;;;2.20;;
44046;SDS011;29713;-33.888;151.150;2022-07-06T03:59:15;15.05;;;2.50;;
44046;SDS011;29713;-33.888;151.150;2022-07-06T04:01:42;10.73;;;2.28;;
44046;SDS011;29713;-33.888;151.150;2022-07-06T04:04:10;13.30;;;2.92;;
44046;SDS011;29713;-33.888;151.150;2022-07-06T04:06:37;14.70;;;2.58;;
44046;SDS011;29713;-33.888;151.150;2022-07-06T04:09:05;15.03;;;2.70;;
44046;SDS011;29713;-33.888;151.150;2022-07-06T04:11:32;12.55;;;2.85;;
44046;SDS011;29713;-33.888;151.150;2022-07-06T04:14:00;10.60;;;2.42;;
44046;SDS011;29713;-33.888;151.150;2022-07-06T04:16:27;15.15;;;2.90;;
44046;SDS011;29713;-33.888;151.150;2022-07-06T04:18:54;15.80;;;2.80;;
44046;SDS011;29713;-33.888;151.150;2022-07-06T04:21:22;8.90;;;1.93;;
44046;SDS011;29713;-33.888;151.150;2022-07-06T04:23:49;12.40;;;2.60;;
44046;SDS011;29713;-33.888;151.150;2022-07-06T04:26:16;8.50;;;2.10;;
44046;SDS011;29713;-33.888;151.150;2022-07-06T04:28:44;12.00;;;2.00;;
44046;SDS011;29713;-33.888;151.150;2022-07-06T04:31:11;14.47;;;2.30;;
44046;SDS011;29713;-33.888;151.150;2022-07-06T04:33:41;12.40;;;2.13;;
44046;SDS011;29713;-33.888;151.150;2022-07-06T04:36:09;7.23;;;1.73;;
44046;SDS011;29713;-33.888;151.150;2022-07-06T04:38:36;10.47;;;1.63;;
44046;SDS011;29713;-33.888;151.150;2022-07-06T04:41:04;10.40;;;1.80;;
44046;SDS011;29713;-33.888;151.150;2022-07-06T04:43:31;7.90;;;1.70;;
44046;SDS011;29713;-33.888;151.150;2022-07-06T04:45:58;13.37;;;1.93;;
44046;SDS011;29713;-33.888;151.150;2022-07-06T04:48:26;14.87;;;2.13;;
44046;SDS011;29713;-33.888;151.150;2022-07-06T04:50:54;8.37;;;2.10;;
44046;SDS011;29713;-33.888;151.150;2022-07-06T04:53:21;7.33;;;1.70;;
44046;SDS011;29713;-33.888;151.150;2022-07-06T04:55:49;8.73;;;2.20;;
44046;SDS011;29713;-33.888;151.150;2022-07-06T04:58:16;7.70;;;1.70;;
44046;SDS011;29713;-33.888;151.150;2022-07-06T05:00:44;9.73;;;2.00;;
44046;SDS011;29713;-33.888;151.150;2022-07-06T05:03:11;4.07;;;1.30;;
44046;SDS011;29713;-33.888;151.150;2022-07-06T05:05:39;10.50;;;1.77;;
44046;SDS011;29713;-33.888;151.150;2022-07-06T05:08:06;9.87;;;1.97;;
44046;SDS011;29713;-33.888;151.150;2022-07-06T05:10:33;8.00;;;1.90;;
44046;SDS011;29713;-33.888;151.150;2022-07-06T05:13:00;8.13;;;1.97;;
44046;SDS011;29713;-33.888;151.150;2022-07-06T05:15:28;13.87;;;2.00;;
44046;SDS011;29713;-33.888;151.150;2022-07-06T05:17:56;9.90;;;2.03;;
44046;SDS011;29713;-33.888;151.150;2022-07-06T05:20:23;13.93;;;2.93;;
44046;SDS011;29713;-33.888;151.150;2022-07-06T05:22:50;14.57;;;2.60;;
44046;SDS011;29713;-33.888;151.150;2022-07-06T05:25:18;12.47;;;2.03;;
44046;SDS011;29713;-33.888;151.150;2022-07-06T05:27:45;9.40;;;2.40;;
44046;SDS011;29713;-33.888;151.150;2022-07-06T05:30:13;12.55;;;2.95;;
44046;SDS011;29713;-33.888;151.150;2022-07-06T05:32:41;11.57;;;2.13;;
44046;SDS011;29713;-33.888;151.150;2022-07-06T05:35:08;7.00;;;2.00;;
44046;SDS011;29713;-33.888;151.150;2022-07-06T05:37:35;9.87;;;3.07;;
44046;SDS011;29713;-33.888;151.150;2022-07-06T05:40:03;15.88;;;2.83;;
44046;SDS011;29713;-33.888;151.150;2022-07-06T05:42:31;15.50;;;3.13;;
44046;SDS011;29713;-33.888;151.150;2022-07-06T05:44:58;15.73;;;3.13;;
44046;SDS011;29713;-33.888;151.150;2022-07-06T05:47:25;8.03;;;1.93;;
44046;SDS011;29713;-33.888;151.150;2022-07-06T05:50:11;14.10;;;2.53;;
44046;SDS011;29713;-33.888;151.150;2022-07-06T05:52:39;8.50;;;2.30;;
44046;SDS011;29713;-33.888;151.150;2022-07-06T05:55:09;17.35;;;2.80;;
44046;SDS011;29713;-33.888;151.150;2022-07-06T05:57:40;11.77;;;2.50;;
44046;SDS011;29713;-33.888;151.150;2022-07-06T06:00:08;14.80;;;2.63;;
44046;SDS011;29713;-33.888;151.150;2022-07-06T06:02:39;13.63;;;2.42;;
44046;SDS011;29713;-33.888;151.150;2022-07-06T06:05:07;10.63;;;2.70;;
44046;SDS011;29713;-33.888;151.150;2022-07-06T06:07:36;11.37;;;2.70;;
44046;SDS011;29713;-33.888;151.150;2022-07-06T06:10:05;12.67;;;2.53;;
44046;SDS011;29713;-33.888;151.150;2022-07-06T06:12:41;15.23;;;2.77;;
44046;SDS011;29713;-33.888;151.150;2022-07-06T06:15:09;12.80;;;2.67;;
44046;SDS011;29713;-33.888;151.150;2022-07-06T06:17:37;14.03;;;3.00;;
44046;SDS011;29713;-33.888;151.150;2022-07-06T06:20:09;14.77;;;3.07;;
44046;SDS011;29713;-33.888;151.150;2022-07-06T06:22:47;11.67;;;2.20;;
44046;SDS011;29713;-33.888;151.150;2022-07-06T06:25:27;16.43;;;2.90;;
44046;SDS011;29713;-33.888;151.150;2022-07-06T06:27:56;12.23;;;2.50;;
44046;SDS011;29713;-33.888;151.150;2022-07-06T06:30:24;14.52;;;3.25;;
44046;SDS011;29713;-33.888;151.150;2022-07-06T06:33:04;12.97;;;2.50;;
44046;SDS011;29713;-33.888;151.150;2022-07-06T06:35:41;15.03;;;2.80;;
44046;SDS011;29713;-33.888;151.150;2022-07-06T06:38:10;13.03;;;2.13;;
44046;SDS011;29713;-33.888;151.150;2022-07-06T06:40:38;12.80;;;2.60;;
44046;SDS011;29713;-33.888;151.150;2022-07-06T06:43:06;14.03;;;2.33;;
44046;SDS011;29713;-33.888;151.150;2022-07-06T06:45:33;13.87;;;2.10;;
44046;SDS011;29713;-33.888;151.150;2022-07-06T06:48:01;9.10;;;2.13;;
44046;SDS011;29713;-33.888;151.150;2022-07-06T06:50:28;14.50;;;2.60;;
44046;SDS011;29713;-33.888;151.150;2022-07-06T06:52:56;14.07;;;2.53;;
44046;SDS011;29713;-33.888;151.150;2022-07-06T06:55:23;12.00;;;2.08;;
44046;SDS011;29713;-33.888;151.150;2022-07-06T06:57:50;13.80;;;2.47;;
44046;SDS011;29713;-33.888;151.150;2022-07-06T07:00:18;17.50;;;2.77;;
44046;SDS011;29713;-33.888;151.150;2022-07-06T07:02:45;11.97;;;2.17;;
44046;SDS011;29713;-33.888;151.150;2022-07-06T07:05:12;13.47;;;2.50;;
44046;SDS011;29713;-33.888;151.150;2022-07-06T07:07:40;11.65;;;2.88;;
44046;SDS011;29713;-33.888;151.150;2022-07-06T07:10:07;9.60;;;2.07;;
44046;SDS011;29713;-33.888;151.150;2022-07-06T07:12:35;11.33;;;2.37;;
44046;SDS011;29713;-33.888;151.150;2022-07-06T07:15:08;9.30;;;2.10;;
44046;SDS011;29713;-33.888;151.150;2022-07-06T07:17:36;10.10;;;2.43;;
44046;SDS011;29713;-33.888;151.150;2022-07-06T07:20:04;12.43;;;2.53;;
44046;SDS011;29713;-33.888;151.150;2022-07-06T07:22:32;9.30;;;2.10;;
44046;SDS011;29713;-33.888;151.150;2022-07-06T07:24:59;17.93;;;3.30;;
44046;SDS011;29713;-33.888;151.150;2022-07-06T07:27:27;9.43;;;2.00;;
44046;SDS011;29713;-33.888;151.150;2022-07-06T07:29:54;11.67;;;2.73;;
44046;SDS011;29713;-33.888;151.150;2022-07-06T07:32:21;7.67;;;2.10;;
44046;SDS011;29713;-33.888;151.150;2022-07-06T07:34:51;12.67;;;2.97;;
44046;SDS011;29713;-33.888;151.150;2022-07-06T07:37:19;7.10;;;1.77;;
44046;SDS011;29713;-33.888;151.150;2022-07-06T07:39:46;15.67;;;1.90;;
44046;SDS011;29713;-33.888;151.150;2022-07-06T07:42:14;8.47;;;2.13;;
44046;SDS011;29713;-33.888;151.150;2022-07-06T07:44:41;10.77;;;3.53;;
44046;SDS011;29713;-33.888;151.150;2022-07-06T07:47:08;9.57;;;3.73;;
44046;SDS011;29713;-33.888;151.150;2022-07-06T07:49:36;8.43;;;2.67;;
44046;SDS011;29713;-33.888;151.150;2022-07-06T07:52:03;11.67;;;3.97;;
44046;SDS011;29713;-33.888;151.150;2022-07-06T07:54:31;12.43;;;3.73;;
44046;SDS011;29713;-33.888;151.150;2022-07-06T07:56:58;10.33;;;2.40;;
44046;SDS011;29713;-33.888;151.150;2022-07-06T07:59:26;10.00;;;3.53;;
44046;SDS011;29713;-33.888;151.150;2022-07-06T08:01:53;9.93;;;2.20;;
44046;SDS011;29713;-33.888;151.150;2022-07-06T08:04:20;14.37;;;3.50;;
44046;SDS011;29713;-33.888;151.150;2022-07-06T08:06:50;7.43;;;2.63;;
44046;SDS011;29713;-33.888;151.150;2022-07-06T08:09:17;11.47;;;2.50;;
44046;SDS011;29713;-33.888;151.150;2022-07-06T08:11:44;10.10;;;2.23;;
44046;SDS011;29713;-33.888;151.150;2022-07-06T08:14:12;7.30;;;2.00;;
44046;SDS011;29713;-33.888;151.150;2022-07-06T08:16:40;7.67;;;2.03;;
44046;SDS011;29713;-33.888;151.150;2022-07-06T08:19:07;7.47;;;1.47;;
44046;SDS011;29713;-33.888;151.150;2022-07-06T08:21:35;8.43;;;2.03;;
44046;SDS011;29713;-33.888;151.150;2022-07-06T08:24:02;7.60;;;2.23;;
44046;SDS011;29713;-33.888;151.150;2022-07-06T08:26:30;8.90;;;2.20;;
44046;SDS011;29713;-33.888;151.150;2022-07-06T08:28:57;11.40;;;2.03;;
44046;SDS011;29713;-33.888;151.150;2022-07-06T08:31:25;6.80;;;2.23;;
44046;SDS011;29713;-33.888;151.150;2022-07-06T08:33:56;10.43;;;2.40;;
44046;SDS011;29713;-33.888;151.150;2022-07-06T08:36:24;6.43;;;2.30;;
44046;SDS011;29713;-33.888;151.150;2022-07-06T08:38:51;12.97;;;4.70;;
44046;SDS011;29713;-33.888;151.150;2022-07-06T08:41:21;6.07;;;2.30;;
44046;SDS011;29713;-33.888;151.150;2022-07-06T08:43:50;10.03;;;2.40;;
44046;SDS011;29713;-33.888;151.150;2022-07-06T08:46:21;5.60;;;1.80;;
44046;SDS011;29713;-33.888;151.150;2022-07-06T08:48:48;7.80;;;2.53;;
44046;SDS011;29713;-33.888;151.150;2022-07-06T08:51:16;8.30;;;1.80;;
44046;SDS011;29713;-33.888;151.150;2022-07-06T08:53:45;9.20;;;1.70;;
44046;SDS011;29713;-33.888;151.150;2022-07-06T08:56:14;6.37;;;2.00;;
44046;SDS011;29713;-33.888;151.150;2022-07-06T08:58:43;6.97;;;2.17;;
44046;SDS011;29713;-33.888;151.150;2022-07-06T09:01:11;6.47;;;2.00;;
44046;SDS011;29713;-33.888;151.150;2022-07-06T09:03:41;8.67;;;1.87;;
44046;SDS011;29713;-33.888;151.150;2022-07-06T09:06:11;8.60;;;2.47;;
44046;SDS011;29713;-33.888;151.150;2022-07-06T09:08:46;6.07;;;1.70;;
44046;SDS011;29713;-33.888;151.150;2022-07-06T09:11:15;6.37;;;1.30;;
44046;SDS011;29713;-33.888;151.150;2022-07-06T09:13:42;5.78;;;2.08;;
44046;SDS011;29713;-33.888;151.150;2022-07-06T09:16:10;5.97;;;1.97;;
44046;SDS011;29713;-33.888;151.150;2022-07-06T09:18:39;4.37;;;1.27;;
44046;SDS011;29713;-33.888;151.150;2022-07-06T09:21:09;4.17;;;1.60;;
44046;SDS011;29713;-33.888;151.150;2022-07-06T09:23:37;3.97;;;1.00;;
44046;SDS011;29713;-33.888;151.150;2022-07-06T09:26:06;7.47;;;1.50;;
44046;SDS011;29713;-33.888;151.150;2022-07-06T09:28:43;8.73;;;2.30;;
44046;SDS011;29713;-33.888;151.150;2022-07-06T09:31:11;6.90;;;2.23;;
44046;SDS011;29713;-33.888;151.150;2022-07-06T09:33:52;4.38;;;1.08;;
44046;SDS011;29713;-33.888;151.150;2022-07-06T09:36:48;7.03;;;1.75;;
44046;SDS011;29713;-33.888;151.150;2022-07-06T09:39:26;5.40;;;2.00;;
44046;SDS011;29713;-33.888;151.150;2022-07-06T09:41:56;5.50;;;1.43;;
44046;SDS011;29713;-33.888;151.150;2022-07-06T09:44:25;4.57;;;0.93;;
44046;SDS011;29713;-33.888;151.150;2022-07-06T09:46:57;6.77;;;1.50;;
44046;SDS011;29713;-33.888;151.150;2022-07-06T09:49:26;5.33;;;1.70;;
44046;SDS011;29713;-33.888;151.150;2022-07-06T09:51:55;7.57;;;1.70;;
44046;SDS011;29713;-33.888;151.150;2022-07-06T09:54:24;4.47;;;1.67;;
44046;SDS011;29713;-33.888;151.150;2022-07-06T09:56:53;6.10;;;1.43;;
44046;SDS011;29713;-33.888;151.150;2022-07-06T09:59:22;7.27;;;1.37;;
44046;SDS011;29713;-33.888;151.150;2022-07-06T10:01:52;6.07;;;1.37;;
44046;SDS011;29713;-33.888;151.150;2022-07-06T10:04:24;4.70;;;1.47;;
44046;SDS011;29713;-33.888;151.150;2022-07-06T10:06:53;5.80;;;1.30;;
44046;SDS011;29713;-33.888;151.150;2022-07-06T10:09:22;4.53;;;1.50;;
44046;SDS011;29713;-33.888;151.150;2022-07-06T10:11:52;7.60;;;1.73;;
44046;SDS011;29713;-33.888;151.150;2022-07-06T10:14:23;9.70;;;2.03;;
44046;SDS011;29713;-33.888;151.150;2022-07-06T10:17:01;6.67;;;1.70;;
44046;SDS011;29713;-33.888;151.150;2022-07-06T10:19:32;5.93;;;1.60;;
44046;SDS011;29713;-33.888;151.150;2022-07-06T10:22:00;6.63;;;1.53;;
44046;SDS011;29713;-33.888;151.150;2022-07-06T10:24:28;6.60;;;2.03;;
44046;SDS011;29713;-33.888;151.150;2022-07-06T10:26:59;8.13;;;1.80;;
44046;SDS011;29713;-33.888;151.150;2022-07-06T10:29:27;9.27;;;1.67;;
44046;SDS011;29713;-33.888;151.150;2022-07-06T10:31:57;6.20;;;1.60;;
44046;SDS011;29713;-33.888;151.150;2022-07-06T10:34:26;4.53;;;1.30;;
44046;SDS011;29713;-33.888;151.150;2022-07-06T10:36:55;6.47;;;1.47;;
44046;SDS011;29713;-33.888;151.150;2022-07-06T10:39:32;5.17;;;1.23;;
44046;SDS011;29713;-33.888;151.150;2022-07-06T10:53:15;4.20;;;1.57;;
44046;SDS011;29713;-33.888;151.150;2022-07-06T10:55:53;2.53;;;0.83;;
44046;SDS011;29713;-33.888;151.150;2022-07-06T11:01:06;3.67;;;1.13;;
44046;SDS011;29713;-33.888;151.150;2022-07-06T11:06:07;6.87;;;1.37;;
44046;SDS011;29713;-33.888;151.150;2022-07-06T11:08:51;3.47;;;1.00;;
44046;SDS011;29713;-33.888;151.150;2022-07-06T11:14:06;2.97;;;1.00;;
44046;SDS011;29713;-33.888;151.150;2022-07-06T11:19:19;3.70;;;1.20;;
44046;SDS011;29713;-33.888;151.150;2022-07-06T11:21:53;3.00;;;1.00;;
44046;SDS011;29713;-33.888;151.150;2022-07-06T11:24:32;5.50;;;1.00;;
44046;SDS011;29713;-33.888;151.150;2022-07-06T11:27:01;3.10;;;0.90;;
44046;SDS011;29713;-33.888;151.150;2022-07-06T11:29:29;4.50;;;1.30;;
44046;SDS011;29713;-33.888;151.150;2022-07-06T11:31:58;3.57;;;0.70;;
44046;SDS011;29713;-33.888;151.150;2022-07-06T11:34:39;4.47;;;1.10;;
44046;SDS011;29713;-33.888;151.150;2022-07-06T11:37:12;3.53;;;1.10;;
44046;SDS011;29713;-33.888;151.150;2022-07-06T11:39:41;4.10;;;1.23;;
44046;SDS011;29713;-33.888;151.150;2022-07-06T11:42:10;2.42;;;0.80;;
44046;SDS011;29713;-33.888;151.150;2022-07-06T11:44:39;7.00;;;1.10;;
44046;SDS011;29713;-33.888;151.150;2022-07-06T11:47:08;2.90;;;0.73;;
44046;SDS011;29713;-33.888;151.150;2022-07-06T11:49:38;4.40;;;0.90;;
44046;SDS011;29713;-33.888;151.150;2022-07-06T11:52:07;2.35;;;0.90;;
44046;SDS011;29713;-33.888;151.150;2022-07-06T11:54:37;1.90;;;0.70;;
44046;SDS011;29713;-33.888;151.150;2022-07-06T11:57:07;2.10;;;0.80;;
44046;SDS011;29713;-33.888;151.150;2022-07-06T11:59:37;3.33;;;0.90;;
44046;SDS011;29713;-33.888;151.150;2022-07-06T12:02:07;4.47;;;1.00;;
44046;SDS011;29713;-33.888;151.150;2022-07-06T12:04:38;2.27;;;0.90;;
44046;SDS011;29713;-33.888;151.150;2022-07-06T12:07:08;3.43;;;0.90;;
44046;SDS011;29713;-33.888;151.150;2022-07-06T12:09:40;2.23;;;0.70;;
44046;SDS011;29713;-33.888;151.150;2022-07-06T12:12:10;1.27;;;0.93;;
44046;SDS011;29713;-33.888;151.150;2022-07-06T12:14:39;2.47;;;0.70;;
44046;SDS011;29713;-33.888;151.150;2022-07-06T12:17:08;2.30;;;0.80;;
44046;SDS011;29713;-33.888;151.150;2022-07-06T12:19:37;1.35;;;0.60;;
44046;SDS011;29713;-33.888;151.150;2022-07-06T12:22:06;1.00;;;0.63;;
44046;SDS011;29713;-33.888;151.150;2022-07-06T12:24:34;0.70;;;0.50;;
44046;SDS011;29713;-33.888;151.150;2022-07-06T12:29:41;1.07;;;0.70;;
44046;SDS011;29713;-33.888;151.150;2022-07-06T12:34:44;3.70;;;0.60;;
44046;SDS011;29713;-33.888;151.150;2022-07-06T12:37:11;1.80;;;0.80;;
44046;SDS011;29713;-33.888;151.150;2022-07-06T12:39:46;0.40;;;0.40;;
44046;SDS011;29713;-33.888;151.150;2022-07-06T12:42:16;2.40;;;0.60;;
44046;SDS011;29713;-33.888;151.150;2022-07-06T12:44:49;1.77;;;0.93;;
44046;SDS011;29713;-33.888;151.150;2022-07-06T12:47:26;0.50;;;0.50;;
44046;SDS011;29713;-33.888;151.150;2022-07-06T12:50:10;1.53;;;0.77;;
44046;SDS011;29713;-33.888;151.150;2022-07-06T12:52:38;0.80;;;0.50;;
44046;SDS011;29713;-33.888;151.150;2022-07-06T12:55:06;2.37;;;0.63;;
44046;SDS011;29713;-33.888;151.150;2022-07-06T12:57:48;1.50;;;0.60;;
44046;SDS011;29713;-33.888;151.150;2022-07-06T13:00:17;0.70;;;0.50;;
44046;SDS011;29713;-33.888;151.150;2022-07-06T13:02:49;2.00;;;0.60;;
44046;SDS011;29713;-33.888;151.150;2022-07-06T13:05:22;1.83;;;0.70;;
44046;SDS011;29713;-33.888;151.150;2022-07-06T13:07:54;1.80;;;0.70;;
44046;SDS011;29713;-33.888;151.150;2022-07-06T13:10:23;1.33;;;0.50;;
44046;SDS011;29713;-33.888;151.150;2022-07-06T13:12:51;1.43;;;0.80;;
44046;SDS011;29713;-33.888;151.150;2022-07-06T13:15:24;1.37;;;0.80;;
44046;SDS011;29713;-33.888;151.150;2022-07-06T13:17:52;0.70;;;0.70;;
44046;SDS011;29713;-33.888;151.150;2022-07-06T13:20:19;1.73;;;1.00;;
44046;SDS011;29713;-33.888;151.150;2022-07-06T13:22:47;1.77;;;0.70;;
44046;SDS011;29713;-33.888;151.150;2022-07-06T13:25:14;2.00;;;1.10;;
44046;SDS011;29713;-33.888;151.150;2022-07-06T13:27:42;2.67;;;0.70;;
44046;SDS011;29713;-33.888;151.150;2022-07-06T13:30:09;2.60;;;1.10;;
44046;SDS011;29713;-33.888;151.150;2022-07-06T13:32:40;2.37;;;0.90;;
44046;SDS011;29713;-33.888;151.150;2022-07-06T13:35:07;3.40;;;1.07;;
44046;SDS011;29713;-33.888;151.150;2022-07-06T13:37:35;4.63;;;1.17;;
44046;SDS011;29713;-33.888;151.150;2022-07-06T13:40:02;2.90;;;0.90;;
44046;SDS011;29713;-33.888;151.150;2022-07-06T13:42:32;2.63;;;1.07;;
44046;SDS011;29713;-33.888;151.150;2022-07-06T13:45:03;2.50;;;1.00;;
44046;SDS011;29713;-33.888;151.150;2022-07-06T13:47:30;4.53;;;1.50;;
44046;SDS011;29713;-33.888;151.150;2022-07-06T13:49:58;3.57;;;1.10;;
44046;SDS011;29713;-33.888;151.150;2022-07-06T13:52:28;2.97;;;1.23;;
44046;SDS011;29713;-33.888;151.150;2022-07-06T13:54:55;3.70;;;1.10;;
44046;SDS011;29713;-33.888;151.150;2022-07-06T13:57:22;2.17;;;0.90;;
44046;SDS011;29713;-33.888;151.150;2022-07-06T13:59:49;2.60;;;0.80;;
44046;SDS011;29713;-33.888;151.150;2022-07-06T14:02:17;5.17;;;1.13;;
44046;SDS011;29713;-33.888;151.150;2022-07-06T14:04:44;3.13;;;1.10;;
44046;SDS011;29713;-33.888;151.150;2022-07-06T14:07:11;6.30;;;1.43;;
44046;SDS011;29713;-33.888;151.150;2022-07-06T14:09:39;5.00;;;1.10;;
44046;SDS011;29713;-33.888;151.150;2022-07-06T14:12:06;3.87;;;1.03;;
44046;SDS011;29713;-33.888;151.150;2022-07-06T14:14:34;2.00;;;1.00;;
44046;SDS011;29713;-33.888;151.150;2022-07-06T14:17:01;3.60;;;1.00;;
44046;SDS011;29713;-33.888;151.150;2022-07-06T14:19:29;4.13;;;1.10;;
44046;SDS011;29713;-33.888;151.150;2022-07-06T14:21:57;3.30;;;0.90;;
44046;SDS011;29713;-33.888;151.150;2022-07-06T14:24:24;4.03;;;1.00;;
44046;SDS011;29713;-33.888;151.150;2022-07-06T14:26:51;2.97;;;0.80;;
44046;SDS011;29713;-33.888;151.150;2022-07-06T14:29:18;2.23;;;1.00;;
44046;SDS011;29713;-33.888;151.150;2022-07-06T14:31:46;1.70;;;0.67;;
44046;SDS011;29713;-33.888;151.150;2022-07-06T14:34:13;4.03;;;1.00;;
44046;SDS011;29713;-33.888;151.150;2022-07-06T14:36:41;6.40;;;1.77;;
44046;SDS011;29713;-33.888;151.150;2022-07-06T14:39:08;2.87;;;1.00;;
44046;SDS011;29713;-33.888;151.150;2022-07-06T14:41:38;4.13;;;1.00;;